Pagrindinis puslapis
METAR-TAF:

METAR-TAF

Oro uostai :

Kaskavelas, Parana, Brazilija

platuma: 25-00-08S, ilguma: 53-30-07W, Aukštis: 754 m

Dabartinis oras

Ataskaita buvo paskelbta 27 minutes, ne 13:00 UTC
Vėjas 20 kt iš Šiaurės Rytų su gūsio iki 30 kt
Temperatūra 22°C
Drėgmė 46%
Slėgis 1007 hPa
Matomumas 10 km arba daugiau
Mažai debesys ne aukštis 3000 ft
Išsisklaidę debesys ne aukštis 8000 ft

METAR: SBCA 231300Z 04020G30KT 9999 FEW030 SCT080 22/10 Q1007

Laikas: 10:27 (13:27 UTC)


TAF: trūkstamas

Orai ataskaitas ir orų prognozės (METAR, TAF).

turimą stotys yra geltonos ir raudonos taškus žemėlapyje.

Perkelti pele per norėdami pamatyti stoties vardą.

Tada spustelėkite, norėdami matyti oro stebėjimo ir prognozės.

Norėdami pakeisti žemėlapį: spustelėkite ant žalios mygtukų su juodo kryžiaus žemyn,; žalią mygtuką su brūkšneliu, jei norite nutolinti; arba žalių rodyklių gretimoms žemėlapius.


METAR-TAF: